首页
METAR-TAF:

METAR-TAF

机场 :

大加那利机场

大加那利岛, 西班牙

纬度: 27-56N, 经度: 015-23W, 海拔: 23米

当前天气观测

该预报发布于32分钟前的06:00 UTC
风速10节,风向
温度 21°C
湿度 78%
气压 1018 hPa
能见度10公里或以上
少量云层高于2000英尺

METAR: GCLP 150600Z 35010KT 9999 FEW020 21/17 Q1018 NOSIG

时间: 07:32 (06:32 UTC)

预报

该预报发布于4小时和32分钟前的02:00 UTC
预报有效从15日的 03点(UTC)到 16日的 03点(UTC)
风速13节,风向
能见度10公里或以上
散云层高于2000英尺

TAF: GCLP 150200Z 1503/1603 36013KT 9999 SCT020 TX28/1514Z TN21/1505Z

超过4000个机场的气象观测和天气预报(METAR&TAF报告)。

可查询的气象台以黄色和红色小点在地图上表示。

将鼠标移到小点上方,可查看气象台名称。

然后点击查看天气观测和预报。

如需切换地图:点击带黑十字的绿色按钮放大地图;点击带横线的绿色按钮缩小地图;或者点击绿色箭头查看邻近地区的地图。


METAR-TAF: